createdAt,value
2019-02-17T00:01:24.675Z,52.37
2019-02-17T00:03:54.029Z,53.33
2019-02-17T00:06:23.335Z,55.27
2019-02-17T00:08:52.691Z,56.27
2019-02-17T00:11:22.406Z,58.50
2019-02-17T00:13:51.717Z,62.27
2019-02-17T00:16:21.055Z,58.67
2019-02-17T00:18:50.674Z,55.43
2019-02-17T00:21:20.276Z,56.57
2019-02-17T00:23:49.887Z,56.17
2019-02-17T00:26:19.243Z,60.80
2019-02-17T00:28:58.932Z,54.90
2019-02-17T00:31:20.265Z,55.77
2019-02-17T00:33:49.601Z,55.07
2019-02-17T00:36:18.940Z,56.33
2019-02-17T00:38:48.552Z,58.20
2019-02-17T00:41:18.201Z,57.07
2019-02-17T00:43:47.885Z,59.10
2019-02-17T00:46:17.236Z,56.00
2019-02-17T00:48:46.556Z,53.80
2019-02-17T00:51:15.909Z,60.50
2019-02-17T00:53:45.247Z,59.43
2019-02-17T00:56:14.900Z,58.40
2019-02-17T00:58:44.251Z,59.87
2019-02-17T01:01:13.557Z,60.03
2019-02-17T01:03:42.896Z,57.67
2019-02-17T01:06:12.272Z,56.50
2019-02-17T01:08:41.999Z,59.60
2019-02-17T01:11:11.373Z,58.53
2019-02-17T01:13:40.741Z,63.30
2019-02-17T01:16:12.552Z,58.20
2019-02-17T01:18:42.292Z,60.60
2019-02-17T01:21:12.491Z,61.73
2019-02-17T01:23:43.209Z,58.37
2019-02-17T01:26:12.808Z,62.50
2019-02-17T01:28:42.135Z,60.63
2019-02-17T01:31:11.481Z,58.07
2019-02-17T01:33:40.817Z,62.60
2019-02-17T01:36:10.551Z,60.77
2019-02-17T01:38:39.884Z,67.10
2019-02-17T01:41:09.213Z,58.53
2019-02-17T01:43:38.563Z,60.90
2019-02-17T01:46:07.897Z,68.80
2019-02-17T01:48:37.492Z,64.93
2019-02-17T01:51:07.114Z,65.07
2019-02-17T01:53:36.483Z,63.60
2019-02-17T01:56:06.100Z,60.40
2019-02-17T01:58:35.747Z,59.87
2019-02-17T02:01:05.083Z,67.80
2019-02-17T02:03:34.430Z,66.43
2019-02-17T02:06:04.022Z,62.53
2019-02-17T02:08:33.644Z,65.80
2019-02-17T02:11:03.064Z,64.27
2019-02-17T02:13:32.381Z,65.90
2019-02-17T02:16:01.726Z,64.00
2019-02-17T02:18:31.356Z,68.93
2019-02-17T02:21:00.694Z,64.87
2019-02-17T02:23:33.606Z,64.77
2019-02-17T02:26:06.366Z,62.97
2019-02-17T02:28:38.439Z,66.43
2019-02-17T02:31:11.229Z,63.13
2019-02-17T02:33:40.518Z,60.27
2019-02-17T02:36:10.126Z,60.37
2019-02-17T02:38:39.852Z,62.30
2019-02-17T02:43:32.413Z,60.83
2019-02-17T02:46:03.059Z,62.00
2019-02-17T02:48:32.665Z,57.87
2019-02-17T02:51:02.027Z,61.70
2019-02-17T02:53:31.364Z,62.37
2019-02-17T02:56:01.008Z,59.57
2019-02-17T02:58:30.425Z,60.13
2019-02-17T03:00:59.764Z,59.27
2019-02-17T03:03:29.083Z,60.87
2019-02-17T03:06:00.356Z,58.73
2019-02-17T03:08:29.719Z,62.53
2019-02-17T03:10:59.066Z,66.63
2019-02-17T03:13:28.412Z,59.17
2019-02-17T03:15:58.005Z,60.03
2019-02-17T03:18:27.614Z,59.93
2019-02-17T03:20:56.948Z,65.87
2019-02-17T03:23:26.295Z,62.90
2019-02-17T03:25:55.779Z,60.17
2019-02-17T03:28:25.463Z,64.10
2019-02-17T03:30:54.795Z,61.40
2019-02-17T03:33:24.150Z,61.30
2019-02-17T03:35:53.517Z,60.37
2019-02-17T03:38:23.145Z,59.13
2019-02-17T03:40:52.541Z,63.77
2019-02-17T03:43:21.862Z,61.87
2019-02-17T03:45:51.182Z,64.87
2019-02-17T03:48:20.774Z,60.00
2019-02-17T03:50:50.366Z,62.33
2019-02-17T03:53:19.967Z,62.87
2019-02-17T03:55:49.560Z,69.90
2019-02-17T03:58:19.147Z,64.17
2019-02-17T04:00:48.726Z,62.13
2019-02-17T04:03:18.322Z,64.67
2019-02-17T04:05:47.932Z,64.60
2019-02-17T04:08:17.241Z,64.57
2019-02-17T04:10:46.571Z,58.50
2019-02-17T04:13:15.933Z,61.47
2019-02-17T04:15:45.693Z,61.63
2019-02-17T04:18:15.457Z,62.57
2019-02-17T04:20:44.824Z,65.50
2019-02-17T04:23:14.168Z,64.73
2019-02-17T04:25:43.517Z,59.93
2019-02-17T04:28:12.841Z,61.07
2019-02-17T04:30:42.465Z,60.83
2019-02-17T04:33:12.121Z,62.10
2019-02-17T04:35:41.730Z,58.13
2019-02-17T04:38:11.058Z,61.47
2019-02-17T04:40:40.678Z,59.93
2019-02-17T04:43:10.059Z,65.97
2019-02-17T04:45:39.366Z,67.33
2019-02-17T04:48:08.701Z,65.47
2019-02-17T04:50:38.016Z,61.57
2019-02-17T04:53:07.691Z,63.10
2019-02-17T04:55:37.032Z,59.73
2019-02-17T04:58:06.720Z,62.23
2019-02-17T05:00:40.208Z,66.60
2019-02-17T05:03:07.484Z,64.80
2019-02-17T05:05:37.269Z,64.10
2019-02-17T05:08:06.594Z,68.17
2019-02-17T05:10:35.931Z,65.70
2019-02-17T05:13:05.283Z,68.60
2019-02-17T05:15:34.637Z,68.50
2019-02-17T05:18:03.965Z,61.03
2019-02-17T05:20:33.280Z,63.43
2019-02-17T05:23:02.977Z,67.07
2019-02-17T05:25:32.287Z,64.47
2019-02-17T05:28:01.655Z,61.13
2019-02-17T05:30:31.002Z,64.67
2019-02-17T05:33:00.669Z,62.37
2019-02-17T05:35:30.001Z,86.13
2019-02-17T05:37:59.689Z,74.40
2019-02-17T05:40:29.023Z,77.63
2019-02-17T05:42:58.345Z,68.60
2019-02-17T05:45:27.684Z,62.40
2019-02-17T05:47:56.999Z,65.80
2019-02-17T05:50:26.312Z,69.37
2019-02-17T05:52:55.682Z,66.77
2019-02-17T05:55:25.052Z,69.93
2019-02-17T05:57:54.680Z,68.00
2019-02-17T06:00:25.952Z,69.07
2019-02-17T06:02:55.534Z,73.00
2019-02-17T06:05:24.891Z,74.33
2019-02-17T06:07:54.556Z,66.63
2019-02-17T06:10:24.151Z,73.73
2019-02-17T06:12:53.886Z,71.00
2019-02-17T06:15:23.219Z,79.30
2019-02-17T06:17:52.869Z,72.63
2019-02-17T06:20:22.217Z,77.67
2019-02-17T06:22:51.898Z,72.13
2019-02-17T06:25:21.237Z,70.87
2019-02-17T06:27:50.627Z,69.13
2019-02-17T06:30:20.324Z,74.40
2019-02-17T06:32:50.005Z,71.67
2019-02-17T06:35:19.418Z,72.97
2019-02-17T06:37:48.783Z,69.90
2019-02-17T06:40:18.850Z,72.60
2019-02-17T06:42:48.581Z,70.27
2019-02-17T06:45:19.781Z,71.83
2019-02-17T06:47:48.979Z,76.57
2019-02-17T06:50:18.623Z,76.33
2019-02-17T06:52:48.279Z,68.97
2019-02-17T06:55:36.221Z,71.30
2019-02-17T06:58:05.925Z,73.43
2019-02-17T07:00:36.904Z,71.57
2019-02-17T07:03:06.250Z,68.77
2019-02-17T07:05:43.305Z,66.90
2019-02-17T07:08:12.689Z,67.80
2019-02-17T07:10:42.013Z,68.63
2019-02-17T07:13:11.344Z,66.87
2019-02-17T07:15:41.070Z,64.80
2019-02-17T07:18:10.434Z,64.93
2019-02-17T07:20:40.082Z,63.63
2019-02-17T07:23:09.534Z,62.37
2019-02-17T07:25:38.850Z,60.83
2019-02-17T07:28:08.502Z,64.10
2019-02-17T07:30:38.217Z,65.53
2019-02-17T07:33:07.892Z,63.77
2019-02-17T07:35:37.233Z,58.23
2019-02-17T07:38:09.471Z,64.80
2019-02-17T07:40:38.830Z,64.53
2019-02-17T07:43:08.251Z,62.40
2019-02-17T07:45:37.590Z,58.83
2019-02-17T07:48:07.279Z,60.27
2019-02-17T07:50:36.883Z,60.30
2019-02-17T07:53:06.219Z,62.63
2019-02-17T07:55:35.888Z,60.03
2019-02-17T07:58:05.225Z,62.07
2019-02-17T08:00:34.889Z,61.53
2019-02-17T08:03:04.534Z,63.43
2019-02-17T08:05:34.309Z,65.00
2019-02-17T08:08:03.930Z,64.33
2019-02-17T08:10:33.538Z,62.63
2019-02-17T08:13:03.257Z,65.60
2019-02-17T08:15:32.619Z,56.93
2019-02-17T08:18:02.351Z,60.07
2019-02-17T08:20:32.074Z,61.87
2019-02-17T08:23:01.431Z,61.27
2019-02-17T08:25:31.087Z,57.73
2019-02-17T08:28:00.805Z,57.57
2019-02-17T08:30:30.404Z,57.47
2019-02-17T08:32:59.755Z,59.67
2019-02-17T08:35:29.118Z,55.87
2019-02-17T08:37:58.794Z,57.77
2019-02-17T08:40:28.184Z,58.00
2019-02-17T08:42:57.512Z,61.97
2019-02-17T08:45:26.827Z,54.93
2019-02-17T08:47:56.509Z,57.10
2019-02-17T08:50:25.833Z,55.70
2019-02-17T08:52:55.165Z,59.03
2019-02-17T08:55:24.810Z,58.47
2019-02-17T08:57:54.564Z,59.37
2019-02-17T09:00:24.225Z,56.47
2019-02-17T09:02:54.027Z,58.93
2019-02-17T09:05:23.398Z,56.90
2019-02-17T09:07:52.719Z,55.90
2019-02-17T09:10:22.352Z,59.30
2019-02-17T09:12:51.717Z,56.67
2019-02-17T09:15:21.396Z,56.93
2019-02-17T09:17:51.065Z,56.77
2019-02-17T09:20:20.442Z,51.90
2019-02-17T09:22:49.894Z,53.50
2019-02-17T09:25:19.643Z,52.77
2019-02-17T09:27:49.290Z,54.83
2019-02-17T09:30:19.099Z,52.77
2019-02-17T09:32:48.799Z,57.07
2019-02-17T09:35:18.407Z,53.87
2019-02-17T09:37:48.124Z,53.70
2019-02-17T09:40:17.974Z,51.27
2019-02-17T09:42:47.264Z,51.60
2019-02-17T09:45:17.677Z,55.17
2019-02-17T09:47:47.358Z,50.50
2019-02-17T09:50:16.676Z,52.93
2019-02-17T09:52:45.981Z,49.97
2019-02-17T09:55:15.664Z,50.00
2019-02-17T09:57:45.059Z,51.27
2019-02-17T10:00:15.992Z,51.20
2019-02-17T10:02:45.376Z,46.97
2019-02-17T10:05:15.327Z,50.77
2019-02-17T10:07:44.658Z,47.00
2019-02-17T10:10:20.582Z,47.10
2019-02-17T10:12:50.456Z,46.70
2019-02-17T10:15:19.884Z,47.10
2019-02-17T10:17:49.336Z,45.40
2019-02-17T10:20:18.808Z,42.73
2019-02-17T10:22:48.543Z,43.63
2019-02-17T10:25:18.192Z,47.07
2019-02-17T10:27:47.536Z,42.03
2019-02-17T10:30:19.733Z,38.23
2019-02-17T10:32:49.115Z,40.03
2019-02-17T10:35:18.447Z,40.97
2019-02-17T10:37:48.020Z,39.87
2019-02-17T10:40:19.553Z,38.20
2019-02-17T10:42:49.388Z,39.50
2019-02-17T10:45:18.745Z,41.37
2019-02-17T10:47:48.095Z,37.87
2019-02-17T10:50:17.736Z,38.60
2019-02-17T10:52:47.124Z,41.03
2019-02-17T10:55:16.876Z,39.47
2019-02-17T10:57:46.418Z,36.93
2019-02-17T11:00:22.190Z,36.50
2019-02-17T11:02:51.531Z,37.13
2019-02-17T11:05:21.167Z,35.50
2019-02-17T11:07:50.478Z,35.57
2019-02-17T11:10:19.809Z,37.47
2019-02-17T11:12:49.475Z,34.57
2019-02-17T11:15:21.936Z,34.07
2019-02-17T11:17:51.273Z,34.13
2019-02-17T11:20:21.150Z,33.30
2019-02-17T11:22:50.666Z,33.50
2019-02-17T11:25:20.264Z,32.10
2019-02-17T11:27:49.962Z,34.23
2019-02-17T11:30:21.779Z,32.50
2019-02-17T11:32:57.886Z,33.23
2019-02-17T11:35:22.503Z,30.53
2019-02-17T11:37:52.132Z,29.33
2019-02-17T11:40:21.492Z,31.97
2019-02-17T11:42:50.883Z,31.47
2019-02-17T11:45:20.768Z,29.63
2019-02-17T11:47:50.509Z,31.53
2019-02-17T11:50:19.849Z,33.87
2019-02-17T11:52:49.208Z,31.97
2019-02-17T11:55:18.547Z,30.63
2019-02-17T11:57:48.194Z,31.87
2019-02-17T12:00:23.092Z,34.40
2019-02-17T12:02:52.949Z,34.67
2019-02-17T12:05:22.307Z,34.30
2019-02-17T12:07:52.051Z,30.70
2019-02-17T12:10:21.638Z,32.23
2019-02-17T12:12:51.263Z,32.33
2019-02-17T12:15:20.915Z,32.40
2019-02-17T12:17:50.578Z,29.07
2019-02-17T12:20:40.686Z,29.13
2019-02-17T12:23:12.133Z,31.10
2019-02-17T12:25:49.406Z,30.27
2019-02-17T12:28:20.418Z,30.87
2019-02-17T12:30:51.426Z,32.13
2019-02-17T12:33:21.947Z,29.17
2019-02-17T12:35:52.388Z,31.93
2019-02-17T12:38:22.021Z,28.73
2019-02-17T12:40:51.637Z,30.53
2019-02-17T12:43:20.993Z,30.27
2019-02-17T12:45:50.700Z,26.83
2019-02-17T12:48:20.477Z,27.33
2019-02-17T12:50:49.801Z,27.07
2019-02-17T12:53:19.419Z,25.73
2019-02-17T12:55:48.725Z,25.93
2019-02-17T12:58:18.087Z,30.10
2019-02-17T13:00:47.429Z,28.87
2019-02-17T13:03:17.120Z,26.63
2019-02-17T13:05:47.023Z,28.13
2019-02-17T13:08:16.351Z,31.57
2019-02-17T13:10:46.010Z,24.87
2019-02-17T13:13:15.745Z,25.47
2019-02-17T13:15:45.065Z,25.67
2019-02-17T13:18:14.414Z,27.03
2019-02-17T13:20:45.913Z,26.83
2019-02-17T13:23:15.347Z,28.63
2019-02-17T13:25:44.974Z,27.30
2019-02-17T13:28:14.612Z,27.33
2019-02-17T13:30:44.296Z,26.43
2019-02-17T13:33:13.898Z,26.50
2019-02-17T13:35:43.265Z,25.23
2019-02-17T13:38:12.917Z,23.50
2019-02-17T13:40:42.817Z,23.97
2019-02-17T13:43:12.250Z,23.90
2019-02-17T13:45:41.834Z,25.37
2019-02-17T13:48:11.545Z,26.87
2019-02-17T13:50:40.869Z,25.80
2019-02-17T13:53:12.000Z,26.63
2019-02-17T13:55:42.012Z,27.33
2019-02-17T13:58:11.680Z,27.67
2019-02-17T14:00:40.999Z,28.27
2019-02-17T14:03:10.328Z,26.13
2019-02-17T14:05:39.819Z,25.90
2019-02-17T14:08:09.141Z,28.10
2019-02-17T14:10:38.866Z,27.37
2019-02-17T14:13:08.281Z,28.33
2019-02-17T14:15:37.638Z,27.60
2019-02-17T14:18:07.207Z,29.33
2019-02-17T14:20:36.950Z,26.80
2019-02-17T14:23:06.287Z,28.20
2019-02-17T14:25:36.030Z,28.03
2019-02-17T14:28:05.666Z,28.60
2019-02-17T14:30:35.309Z,28.13
2019-02-17T14:33:04.648Z,28.97
2019-02-17T14:35:34.384Z,27.80
2019-02-17T14:38:03.764Z,29.43
2019-02-17T14:40:33.198Z,27.67
2019-02-17T14:43:02.935Z,29.30
2019-02-17T14:45:32.584Z,27.73
2019-02-17T14:48:02.564Z,26.83
2019-02-17T14:50:31.967Z,28.17
2019-02-17T14:53:01.579Z,27.40
2019-02-17T14:55:31.179Z,29.03
2019-02-17T14:58:05.529Z,27.00
2019-02-17T15:00:32.182Z,29.03
2019-02-17T15:03:01.822Z,25.30
2019-02-17T15:05:31.147Z,27.53
2019-02-17T15:08:00.767Z,30.03
2019-02-17T15:10:30.578Z,28.10
2019-02-17T15:12:59.998Z,28.53
2019-02-17T15:15:29.340Z,29.27
2019-02-17T15:17:58.946Z,28.67
2019-02-17T15:20:28.671Z,29.73
2019-02-17T15:23:01.031Z,29.90
2019-02-17T15:25:30.511Z,27.93
2019-02-17T15:28:00.292Z,27.73
2019-02-17T15:30:30.077Z,29.13
2019-02-17T15:33:03.998Z,29.10
2019-02-17T15:35:31.099Z,28.27
2019-02-17T15:38:00.819Z,29.03
2019-02-17T15:40:30.177Z,26.93
2019-02-17T15:42:59.601Z,28.77
2019-02-17T15:45:29.453Z,28.13
2019-02-17T15:47:59.217Z,26.87
2019-02-17T15:50:28.647Z,28.03
2019-02-17T15:52:57.991Z,26.93
2019-02-17T15:55:27.656Z,28.63
2019-02-17T15:57:57.045Z,27.27
2019-02-17T16:00:26.670Z,29.60
2019-02-17T16:02:56.356Z,27.47
2019-02-17T16:05:25.797Z,30.73
2019-02-17T16:07:55.440Z,29.83
2019-02-17T16:10:24.829Z,30.63
2019-02-17T16:12:54.471Z,28.43
2019-02-17T16:15:27.063Z,27.90
2019-02-17T16:17:56.746Z,31.13
2019-02-17T16:20:26.554Z,31.47
2019-02-17T16:22:56.166Z,31.67
2019-02-17T16:25:25.793Z,31.37
2019-02-17T16:27:55.484Z,33.73
2019-02-17T16:30:25.454Z,33.67
2019-02-17T16:32:54.818Z,33.70
2019-02-17T16:35:24.173Z,31.63
2019-02-17T16:37:53.518Z,33.77
2019-02-17T16:40:23.213Z,34.17
2019-02-17T16:42:52.984Z,33.40
2019-02-17T16:45:22.591Z,37.37
2019-02-17T16:47:52.241Z,36.00
2019-02-17T16:50:33.628Z,37.33
2019-02-17T16:53:03.259Z,36.10
2019-02-17T16:55:33.019Z,38.77
2019-02-17T16:58:02.372Z,39.50
2019-02-17T17:00:31.949Z,37.83
2019-02-17T17:03:01.776Z,39.53
2019-02-17T17:05:31.395Z,43.23
2019-02-17T17:08:00.687Z,41.93
2019-02-17T17:10:30.293Z,39.77
2019-02-17T17:12:59.629Z,44.23
2019-02-17T17:15:29.241Z,43.93
2019-02-17T17:17:58.694Z,45.07
2019-02-17T17:20:28.275Z,43.13
2019-02-17T17:22:58.000Z,42.87
2019-02-17T17:25:27.449Z,43.63
2019-02-17T17:27:56.780Z,44.93
2019-02-17T17:30:26.415Z,42.93
2019-02-17T17:32:56.011Z,47.13
2019-02-17T17:35:25.638Z,44.17
2019-02-17T17:37:55.368Z,46.23
2019-02-17T17:40:24.988Z,47.83
2019-02-17T17:42:54.325Z,45.73
2019-02-17T17:45:24.149Z,48.47
2019-02-17T17:47:53.512Z,47.73
2019-02-17T17:50:23.110Z,47.43
2019-02-17T17:52:52.699Z,48.13
2019-02-17T17:55:22.340Z,49.80
2019-02-17T17:57:51.990Z,50.83
2019-02-17T18:00:23.100Z,51.23
2019-02-17T18:02:52.442Z,48.03
2019-02-17T18:05:22.258Z,50.10
2019-02-17T18:07:51.553Z,48.70
2019-02-17T18:10:20.870Z,48.70
2019-02-17T18:12:50.562Z,53.40
2019-02-17T18:15:21.124Z,51.00
2019-02-17T18:17:54.362Z,48.27
2019-02-17T18:20:21.522Z,50.50
2019-02-17T18:22:51.128Z,50.53
2019-02-17T18:25:21.025Z,51.27
2019-02-17T18:27:50.746Z,47.93
2019-02-17T18:30:23.077Z,50.40
2019-02-17T18:32:52.487Z,50.63
2019-02-17T18:35:21.807Z,48.97
2019-02-17T18:37:51.417Z,50.63
2019-02-17T18:40:21.323Z,52.27
2019-02-17T18:42:50.928Z,51.90
2019-02-17T18:45:20.513Z,51.57
2019-02-17T18:47:49.861Z,57.87
2019-02-17T18:50:19.865Z,52.90
2019-02-17T18:52:49.213Z,54.40
2019-02-17T18:55:18.604Z,51.23
2019-02-17T18:57:50.777Z,56.57
2019-02-17T19:00:25.436Z,51.07
2019-02-17T19:02:55.225Z,57.93
2019-02-17T19:05:31.653Z,53.33
2019-02-17T19:07:56.129Z,53.33
2019-02-17T19:10:25.492Z,54.53
2019-02-17T19:12:55.123Z,53.87
2019-02-17T19:15:24.795Z,52.57
2019-02-17T19:17:54.124Z,48.67
2019-02-17T19:20:33.861Z,50.57
2019-02-17T19:23:03.441Z,52.00
2019-02-17T19:25:32.793Z,52.50
2019-02-17T19:28:03.689Z,53.37
2019-02-17T19:30:33.628Z,53.67
2019-02-17T19:33:03.341Z,56.20
2019-02-17T19:35:41.626Z,52.27
2019-02-17T19:38:04.387Z,51.10
2019-02-17T19:40:33.748Z,52.50
2019-02-17T19:43:03.606Z,53.60
2019-02-17T19:45:33.100Z,48.60
2019-02-17T19:48:03.442Z,56.67
2019-02-17T19:50:32.789Z,52.23
2019-02-17T19:53:02.134Z,55.23
2019-02-17T19:55:32.056Z,52.03
2019-02-17T19:58:02.378Z,51.63
2019-02-17T20:00:31.795Z,51.40
2019-02-17T20:03:02.761Z,51.23
2019-02-17T20:05:37.046Z,53.50
2019-02-17T20:08:06.750Z,49.77
2019-02-17T20:10:36.489Z,53.57
2019-02-17T20:13:08.336Z,54.77
2019-02-17T20:15:37.702Z,52.37
2019-02-17T20:18:07.061Z,52.77
2019-02-17T20:20:36.451Z,51.40
2019-02-17T20:23:06.162Z,53.53
2019-02-17T20:25:35.813Z,52.10
2019-02-17T20:28:05.435Z,49.60
2019-02-17T20:30:35.138Z,50.77
2019-02-17T20:33:04.842Z,54.80
2019-02-17T20:35:34.556Z,51.93
2019-02-17T20:38:03.881Z,55.07
2019-02-17T20:40:33.547Z,54.97
2019-02-17T20:43:03.157Z,50.83
2019-02-17T20:45:32.910Z,51.23
2019-02-17T20:48:02.234Z,51.13
2019-02-17T20:50:31.588Z,50.17
2019-02-17T20:53:01.291Z,50.83
2019-02-17T20:55:30.892Z,51.57
2019-02-17T20:58:00.493Z,49.37
2019-02-17T21:00:30.328Z,51.00
2019-02-17T21:03:00.023Z,48.10
2019-02-17T21:05:30.044Z,51.13
2019-02-17T21:07:59.701Z,51.13
2019-02-17T21:10:29.065Z,47.60
2019-02-17T21:12:58.760Z,48.97
2019-02-17T21:15:28.377Z,50.23
2019-02-17T21:17:57.690Z,51.30
2019-02-17T21:20:27.698Z,51.57
2019-02-17T21:22:57.049Z,51.40
2019-02-17T21:25:26.699Z,53.80
2019-02-17T21:27:56.399Z,51.80
2019-02-17T21:30:25.834Z,51.67
2019-02-17T21:32:55.504Z,51.63
2019-02-17T21:35:24.802Z,52.77
2019-02-17T21:37:54.151Z,53.53
2019-02-17T21:40:23.874Z,50.83
2019-02-17T21:42:53.508Z,52.93
2019-02-17T21:45:23.210Z,54.03
2019-02-17T21:47:52.570Z,54.10
2019-02-17T21:50:21.905Z,54.90
2019-02-17T21:52:51.648Z,52.17
2019-02-17T21:55:21.319Z,52.73
2019-02-17T21:57:50.956Z,50.47
2019-02-17T22:00:21.611Z,51.70
2019-02-17T22:02:51.304Z,52.97
2019-02-17T22:05:20.719Z,52.83
2019-02-17T22:07:50.062Z,50.63
2019-02-17T22:10:20.887Z,55.47
2019-02-17T22:12:51.372Z,54.47
2019-02-17T22:15:22.798Z,51.83
2019-02-17T22:17:52.408Z,50.83
2019-02-17T22:20:21.773Z,51.80
2019-02-17T22:22:51.506Z,50.00
2019-02-17T22:25:20.898Z,51.27
2019-02-17T22:27:50.237Z,50.07
2019-02-17T22:30:19.918Z,55.27
2019-02-17T22:32:49.512Z,45.67
2019-02-17T22:35:19.133Z,51.97
2019-02-17T22:37:48.769Z,49.80
2019-02-17T22:40:18.081Z,51.80
2019-02-17T22:42:47.411Z,50.10
2019-02-17T22:45:17.061Z,51.50
2019-02-17T22:47:46.374Z,49.80
2019-02-17T22:50:16.695Z,48.27
2019-02-17T22:52:46.262Z,52.53
2019-02-17T22:55:15.993Z,51.43
2019-02-17T22:57:45.348Z,51.17
2019-02-17T23:00:35.579Z,55.87
2019-02-17T23:03:05.277Z,57.00
2019-02-17T23:05:34.674Z,55.57
2019-02-17T23:08:04.453Z,52.47
2019-02-17T23:10:33.793Z,53.23
2019-02-17T23:13:03.621Z,54.77
2019-02-17T23:15:33.335Z,55.50
2019-02-17T23:18:02.662Z,55.07
2019-02-17T23:20:32.022Z,49.47
2019-02-17T23:23:01.476Z,50.13
2019-02-17T23:25:30.831Z,54.90
2019-02-17T23:28:00.231Z,53.30
2019-02-17T23:30:30.028Z,54.53
2019-02-17T23:32:59.741Z,52.57
2019-02-17T23:35:29.468Z,54.03
2019-02-17T23:37:59.172Z,58.53
2019-02-17T23:40:28.486Z,55.80
2019-02-17T23:42:57.808Z,61.00
2019-02-17T23:45:27.469Z,57.00
2019-02-17T23:47:57.086Z,54.70
2019-02-17T23:50:26.629Z,53.50
2019-02-17T23:52:55.959Z,56.70
2019-02-17T23:55:25.307Z,57.80
2019-02-17T23:57:54.584Z,54.80
